Time;durP1;ratioP1;P1;durP2;ratioP2;P2;SDS_P1;SDS_P2;PMS_P1;PMS_P2;Temp;Humidity;BMP_temperature;BMP_pressure;BME280_temperature;BME280_humidity;BME280_pressure;Samples;Min_cycle;Max_cycle;Signal;HPM_P1;HPM_P2
2023/06/25 00:04:40;;;;;;;0.00;0.00;;;;;;;-145.06;100.00;90882.88;10425639;28;20020;-76
2023/06/25 00:09:52;;;;;;;0.10;0.10;;;;;;;-145.06;100.00;90925.81;10415427;28;20465;-75
2023/06/25 00:14:52;;;;;;;0.10;0.10;;;;;;;-145.06;100.00;90997.34;10431777;28;20024;-75
2023/06/25 00:19:56;;;;;;;0.10;0.10;;;;;;;-145.06;100.00;91087.28;10421054;28;20028;-75
2023/06/25 00:24:56;;;;;;;0.10;0.10;;;;;;;-145.06;100.00;91122.03;10406075;28;20017;-75
2023/06/25 00:30:00;;;;;;;0.10;0.10;;;;;;;-145.06;100.00;91091.38;10431767;28;20474;-76
2023/06/25 00:35:06;;;;;;;0.10;0.10;;;;;;;-145.06;100.00;91136.34;10432263;28;20094;-75
2023/06/25 00:45:20;;;;;;;0.10;0.10;;;;;;;-145.06;100.00;91207.91;10399580;28;20115;-76
2023/06/25 00:50:21;;;;;;;0.10;0.10;;;;;;;-145.06;100.00;91240.59;10371959;28;20072;-76
2023/06/25 00:55:22;;;;;;;0.10;0.10;;;;;;;-145.06;100.00;91259.00;10373827;28;20029;-76
2023/06/25 01:00:24;;;;;;;0.10;0.10;;;;;;;-145.06;100.00;91256.94;10368422;28;20482;-76
2023/06/25 01:05:31;;;;;;;0.10;0.10;;;;;;;-145.06;100.00;91324.41;10392075;28;20022;-76
2023/06/25 01:10:31;;;;;;;0.10;0.10;;;;;;;-145.06;100.00;91322.38;10389337;28;20107;-76
2023/06/25 01:15:32;;;;;;;0.10;0.10;;;;;;;-145.06;100.00;91359.16;10370222;28;20135;-77
2023/06/25 01:20:32;;;;;;;0.10;0.10;;;;;;;-145.06;100.00;91391.88;10385116;28;20025;-76
2023/06/25 01:25:36;;;;;;;0.10;0.10;;;;;;;-145.06;100.00;91412.31;10377609;28;20025;-76
2023/06/25 01:30:36;;;;;;;0.10;0.10;;;;;;;-145.06;100.00;91455.25;10387676;28;20446;-76
2023/06/25 01:35:36;;;;;;;0.10;0.10;;;;;;;-145.06;100.00;91518.63;10377756;28;20025;-76
2023/06/25 01:40:37;;;;;;;0.10;0.10;;;;;;;-145.06;100.00;91547.22;10364139;28;20028;-76
2023/06/25 01:45:37;;;;;;;0.10;0.10;;;;;;;-145.06;100.00;91659.69;10374712;28;20036;-76
2023/06/25 01:50:38;;;;;;;0.10;0.10;;;;;;;-145.06;100.00;91755.75;10389357;28;20422;-76
2023/06/25 01:55:38;;;;;;;0.10;0.10;;;;;;;-145.06;100.00;91788.47;10369874;28;20414;-76
2023/06/25 02:00:40;;;;;;;0.10;0.10;;;;;;;-145.06;100.00;91776.22;10375227;28;20092;-76
2023/06/25 02:05:41;;;;;;;0.10;0.10;;;;;;;-145.06;100.00;91821.19;10378625;28;20032;-76
2023/06/25 02:10:42;;;;;;;0.10;0.10;;;;;;;-145.06;100.00;91817.09;10354931;28;20105;-76
2023/06/25 02:15:42;;;;;;;0.10;0.10;;;;;;;-145.06;100.00;91909.09;10372124;28;20022;-76
2023/06/25 02:20:42;;;;;;;0.10;0.10;;;;;;;-145.06;100.00;91923.41;10373129;28;20363;-76
2023/06/25 02:25:43;;;;;;;0.10;0.10;;;;;;;-145.06;100.00;91907.06;10372554;28;20033;-76
2023/06/25 02:30:43;;;;;;;0.10;0.10;;;;;;;-145.06;100.00;91933.63;10354224;28;20014;-76
2023/06/25 02:35:43;;;;;;;0.10;0.10;;;;;;;-145.06;100.00;91972.47;10370753;28;20041;-76
2023/06/25 02:40:44;;;;;;;0.10;0.10;;;;;;;-145.06;100.00;91970.44;10334726;28;1105685;-76
2023/06/25 02:45:44;;;;;;;0.10;0.10;;;;;;;-145.06;100.00;91976.56;10390362;28;20034;-76
2023/06/25 02:50:44;;;;;;;0.07;0.07;;;;;;;-145.06;100.00;92025.63;10385759;28;20485;-76
2023/06/25 02:55:45;;;;;;;0.10;0.10;;;;;;;-145.06;100.00;91997.00;10380169;28;20032;-76
2023/06/25 03:00:45;;;;;;;0.10;0.10;;;;;;;-145.06;100.00;92009.28;10386123;28;20524;-76
2023/06/25 03:05:45;;;;;;;0.10;0.10;;;;;;;-145.06;100.00;92031.78;10376091;28;20025;-76
2023/06/25 03:10:45;;;;;;;0.10;0.10;;;;;;;-145.06;100.00;92005.19;10354018;28;20037;-76
2023/06/25 03:15:46;;;;;;;0.10;0.10;;;;;;;-145.06;100.00;92021.53;10370072;28;20025;-76
2023/06/25 03:20:46;;;;;;;0.10;0.10;;;;;;;-145.06;100.00;92017.47;10380571;28;20018;-76
2023/06/25 03:25:46;;;;;;;0.10;0.10;;;;;;;-145.06;100.00;91798.69;10382901;28;20025;-76
2023/06/25 03:30:47;;;;;;;0.10;0.10;;;;;;;-145.06;100.00;91641.28;10372081;28;20438;-76
2023/06/25 03:35:48;;;;;;;0.10;0.10;;;;;;;-145.06;100.00;91524.75;10376253;28;20021;-76
2023/06/25 03:40:48;;;;;;;0.10;0.10;;;;;;;-145.06;100.00;91647.41;10359347;28;20490;-76
2023/06/25 03:45:48;;;;;;;0.10;0.10;;;;;;;-145.06;100.00;91348.94;10377167;28;20276;-76
2023/06/25 03:50:49;;;;;;;0.10;0.10;;;;;;;-145.06;100.00;91175.19;10389424;28;20026;-76
2023/06/25 03:55:49;;;;;;;0.10;0.10;;;;;;;-145.06;100.00;90995.31;10375267;28;20021;-76
2023/06/25 04:00:49;;;;;;;0.10;0.10;;;;;;;-145.06;100.00;90795.00;10376417;28;20030;-76
2023/06/25 04:05:50;;;;;;;0.00;0.00;;;;;;;-145.06;100.00;90645.78;10371322;28;20036;-76
2023/06/25 04:10:50;;;;;;;0.10;0.10;;;;;;;-145.06;100.00;90535.44;10358619;28;20032;-77
2023/06/25 04:15:51;;;;;;;0.10;0.10;;;;;;;-145.06;100.00;90594.69;10365925;28;20080;-77
2023/06/25 04:20:51;;;;;;;0.10;0.10;;;;;;;-145.06;100.00;90829.75;10374124;28;20036;-76
2023/06/25 04:25:52;;;;;;;0.10;0.10;;;;;;;-145.06;100.00;90891.06;10367679;28;20496;-77
2023/06/25 04:30:52;;;;;;;0.00;0.00;;;;;;;-145.06;100.00;90598.78;10374302;28;20025;-77
2023/06/25 04:35:53;;;;;;;0.03;0.03;;;;;;;-145.06;100.00;90373.97;10381182;28;20160;-77
2023/06/25 04:40:53;;;;;;;0.00;0.00;;;;;;;-145.06;100.00;90398.50;10386140;28;20080;-77
2023/06/25 04:45:53;;;;;;;0.00;0.00;;;;;;;-145.06;100.00;90269.75;10392716;28;20033;-77
2023/06/25 04:50:53;;;;;;;0.10;0.10;;;;;;;-145.06;100.00;90447.53;10389808;28;20022;-77
2023/06/25 04:55:54;;;;;;;0.00;0.00;;;;;;;-145.06;100.00;90304.47;10383940;28;20486;-77
2023/06/25 05:00:54;;;;;;;0.00;0.00;;;;;;;-145.06;100.00;90049.03;10388292;28;20065;-77
2023/06/25 05:05:54;;;;;;;0.00;0.00;;;;;;;-145.06;100.00;89948.91;10393134;28;20056;-77
2023/06/25 05:10:55;;;;;;;0.10;0.10;;;;;;;-145.06;98.64;89695.50;10387314;28;20033;-77
2023/06/25 05:15:55;;;;;;;0.00;0.00;;;;;;;-145.06;94.27;89566.78;10381234;28;20276;-77
2023/06/25 05:20:55;;;;;;;0.00;0.00;;;;;;;-145.06;89.23;89421.69;10368441;28;20022;-77
2023/06/25 05:25:56;;;;;;;0.10;0.10;;;;;;;-145.06;84.33;89190.81;10384421;28;20072;-77
2023/06/25 05:30:56;;;;;;;0.00;0.00;;;;;;;-145.06;81.52;89041.69;10397793;28;20022;-75
2023/06/25 05:35:56;;;;;;;0.00;0.00;;;;;;;-145.06;76.72;88908.88;10393798;28;20077;-78
2023/06/25 05:40:57;;;;;;;0.00;0.00;;;;;;;-145.06;72.74;88761.78;10387115;28;20037;-78
2023/06/25 05:45:57;;;;;;;0.00;0.00;;;;;;;-145.06;69.30;88639.22;10383695;28;20038;-78
2023/06/25 05:50:57;;;;;;;0.00;0.00;;;;;;;-145.06;66.05;88600.41;10389078;28;20014;-78
2023/06/25 05:55:57;;;;;;;0.10;0.10;;;;;;;-145.06;64.71;88512.56;10372962;28;20033;-78
2023/06/25 06:00:58;;;;;;;0.00;0.00;;;;;;;-145.06;65.01;88465.59;10387846;28;20034;-78
2023/06/25 06:06:00;;;;;;;0.00;0.00;;;;;;;-145.06;59.69;88287.88;10381568;28;20028;-78
2023/06/25 06:11:00;;;;;;;0.00;0.00;;;;;;;-145.06;55.02;88208.19;10385697;28;20423;-77
2023/06/25 06:16:00;;;;;;;0.10;0.10;;;;;;;-145.06;54.54;88167.34;10389905;28;20032;-77
2023/06/25 06:21:01;;;;;;;0.10;0.10;;;;;;;-145.06;54.67;88146.94;10385328;28;20482;-77
2023/06/25 06:26:01;;;;;;;0.10;0.10;;;;;;;-145.06;52.32;88151.00;10368183;28;20426;-77
2023/06/25 06:31:03;;;;;;;0.10;0.10;;;;;;;-145.06;49.19;87995.78;10378001;28;20014;-77
2023/06/25 06:36:03;;;;;;;0.00;0.00;;;;;;;-145.06;48.86;87993.72;10367143;28;20117;-77
2023/06/25 06:41:03;;;;;;;;;;;;;;;-145.06;46.71;87932.47;10379873;28;20109;-77
2023/06/25 06:46:03;;;;;;;0.10;0.10;;;;;;;-145.06;45.18;87856.88;10402696;22;20337;-77
2023/06/25 06:51:04;;;;;;;;;;;;;;;-145.06;44.55;87840.53;10370374;28;20022;-77
2023/06/25 06:56:05;;;;;;;0.10;0.10;;;;;;;-145.06;47.15;87893.66;10369568;28;19909;-76
2023/06/25 07:01:05;;;;;;;0.10;0.10;;;;;;;-145.06;45.51;87811.94;10370365;28;20025;-76
2023/06/25 07:06:06;;;;;;;0.10;0.10;;;;;;;-145.06;45.48;87701.66;10369352;28;20076;-77
2023/06/25 07:11:06;;;;;;;0.10;0.10;;;;;;;-145.06;44.94;87601.59;10369534;28;20018;-77
2023/06/25 07:16:06;;;;;;;0.00;0.00;;;;;;;-145.06;42.73;87523.97;10350143;28;20022;-77
2023/06/25 07:21:07;;;;;;;0.10;0.10;;;;;;;-145.06;42.44;87509.69;10369003;28;20079;-77
2023/06/25 07:26:08;;;;;;;0.10;0.10;;;;;;;-145.06;41.06;87521.94;10368970;28;20026;-77
2023/06/25 07:31:08;;;;;;;0.10;0.10;;;;;;;-145.06;45.09;87603.63;10369223;28;20382;-77
2023/06/25 07:36:08;;;;;;;0.10;0.10;;;;;;;-145.06;40.88;87509.69;10365654;28;20021;-77
2023/06/25 07:41:08;;;;;;;0.10;0.10;;;;;;;-145.06;39.69;87456.59;10368825;28;20026;-77
2023/06/25 07:46:09;;;;;;;0.10;0.10;;;;;;;-145.06;42.23;87570.94;10367387;28;20482;-76
2023/06/25 07:51:09;;;;;;;0.10;0.10;;;;;;;-145.06;44.63;87515.81;10346292;28;20471;-76
2023/06/25 07:56:09;;;;;;;0.00;0.00;;;;;;;-145.06;40.47;87325.88;10367881;28;20048;-76
2023/06/25 08:01:10;;;;;;;0.10;0.10;;;;;;;-145.06;39.87;87217.66;10368574;28;20447;-76
2023/06/25 08:06:10;;;;;;;0.10;0.10;;;;;;;-145.06;40.76;87329.97;10368402;28;20032;-76
2023/06/25 08:11:10;;;;;;;0.10;0.10;;;;;;;-145.06;42.37;87407.56;10368544;28;20806;-76
2023/06/25 08:16:10;;;;;;;0.10;0.10;;;;;;;-145.06;40.15;87287.09;10366778;28;20368;-76
2023/06/25 08:21:12;;;;;;;0.08;0.08;;;;;;;-145.06;42.63;87440.25;10368212;28;20041;-76
2023/06/25 08:26:15;;;;;;;0.10;0.10;;;;;;;-145.06;41.34;87280.97;10367618;28;20026;-76
2023/06/25 08:31:16;;;;;;;0.00;0.00;;;;;;;-145.06;39.24;87280.97;10366551;28;20018;-76
2023/06/25 08:36:16;;;;;;;0.07;0.07;;;;;;;-145.06;43.01;87401.44;10366888;28;20397;-76
2023/06/25 08:41:16;;;;;;;0.10;0.10;;;;;;;-145.06;43.78;87415.75;10367396;28;20022;-76
2023/06/25 08:46:17;;;;;;;0.10;0.10;;;;;;;-145.06;44.59;87521.94;10365611;28;20037;-76
2023/06/25 08:51:21;;;;;;;;;;;;;;;-145.06;45.56;87491.31;10367562;28;20105;-76
2023/06/25 08:56:21;;;;;;;0.10;0.10;;;;;;;-145.06;46.16;87436.16;10364183;28;20367;-77
2023/06/25 09:01:22;;;;;;;0.00;0.00;;;;;;;-145.06;44.12;87381.03;10366336;28;20108;-77
2023/06/25 09:06:22;;;;;;;0.10;0.10;;;;;;;-145.06;44.36;87362.66;10366393;28;20025;-77
2023/06/25 09:11:29;;;;;;;0.03;0.03;;;;;;;-145.06;43.80;87411.66;10366762;28;20029;-76
2023/06/25 09:16:29;;;;;;;0.10;0.10;;;;;;;-145.06;43.86;87442.28;10362306;28;20045;-76
2023/06/25 09:21:37;;;;;;;0.67;0.30;;;;;;;-145.06;44.81;87472.94;10372123;28;20018;-76
2023/06/25 09:27:04;;;;;;;0.10;0.10;;;;;;;-145.06;46.58;87558.69;10369577;28;20486;-76
2023/06/25 09:32:09;;;;;;;0.00;0.00;;;;;;;-145.06;46.37;87922.25;10368597;28;20061;-76
2023/06/25 09:37:09;;;;;;;0.05;0.05;;;;;;;-145.06;47.93;87742.50;10372755;28;20021;-76
2023/06/25 09:42:10;;;;;;;0.00;0.00;;;;;;;-145.06;43.24;87991.69;10372722;28;20450;-76
2023/06/25 09:47:13;;;;;;;0.00;0.00;;;;;;;-145.06;46.43;87583.22;10372466;28;20025;-76
2023/06/25 09:52:15;;;;;;;0.10;0.10;;;;;;;-145.06;44.38;87956.97;10356640;28;20037;-76
2023/06/25 09:57:19;;;;;;;0.10;0.10;;;;;;;-145.06;45.09;87481.09;10375651;28;20113;-75
2023/06/25 10:02:20;;;;;;;0.08;0.08;;;;;;;-145.06;41.67;87816.03;10357088;28;20018;-80
2023/06/25 10:07:23;;;;;;;;;;;;;;;-145.06;44.33;87985.56;10362465;28;20025;-78
2023/06/25 10:12:23;;;;;;;0.00;0.00;;;;;;;-145.06;44.33;88204.13;10371195;28;19909;-77
2023/06/25 10:17:23;;;;;;;0.00;0.00;;;;;;;-145.06;46.28;88210.25;10373492;28;20021;-77
2023/06/25 10:22:25;;;;;;;0.07;0.07;;;;;;;-145.06;43.15;87536.22;10373102;28;20026;-77
2023/06/25 10:27:25;;;;;;;0.10;0.10;;;;;;;-145.06;40.42;87338.13;10374057;28;20022;-78
2023/06/25 10:32:28;;;;;;;0.10;0.10;;;;;;;-145.06;40.79;87311.59;10356627;28;20029;-77
2023/06/25 10:37:29;;;;;;;0.10;0.10;;;;;;;-145.06;44.43;87764.97;10374282;28;20108;-78
2023/06/25 10:42:31;;;;;;;0.00;0.00;;;;;;;-145.06;43.26;87854.84;10374486;28;20374;-78
2023/06/25 10:47:32;;;;;;;;;;;;;;;-145.06;42.23;88114.25;10351092;28;20029;-78
2023/06/25 10:52:32;;;;;;;;;;;;;;;-145.06;41.89;87666.94;10356120;28;19913;-78
2023/06/25 10:57:33;;;;;;;;;;;;;;;-145.06;40.39;87738.44;10372751;28;19915;-78
2023/06/25 11:02:33;;;;;;;0.00;0.00;;;;;;;-145.06;39.76;87781.31;10372596;28;19914;-78
2023/06/25 11:07:33;;;;;;;0.10;0.10;;;;;;;-145.06;42.18;87771.09;10372580;28;20022;-78
2023/06/25 11:12:34;;;;;;;0.10;0.10;;;;;;;-145.06;44.33;88122.41;10372274;28;20474;-78
2023/06/25 11:17:34;;;;;;;0.00;0.00;;;;;;;-145.06;43.34;88242.94;10373305;28;20080;-77
2023/06/25 11:22:42;;;;;;;0.10;0.10;;;;;;;-145.06;44.93;87918.16;10372091;28;20113;-77
2023/06/25 11:27:42;;;;;;;0.10;0.10;;;;;;;-145.06;44.65;87799.69;10368747;28;20668;-77
2023/06/25 11:32:42;;;;;;;0.00;0.00;;;;;;;-145.06;42.05;87797.66;10371756;28;20279;-78
2023/06/25 11:37:47;;;;;;;0.00;0.00;;;;;;;-145.06;43.44;87879.34;10380140;28;20030;-79
2023/06/25 11:42:48;;;;;;;0.10;0.10;;;;;;;-145.06;42.52;87842.59;10362659;28;20026;-80
2023/06/25 11:47:56;;;;;;;0.00;0.00;;;;;;;-145.06;43.18;88312.38;10358948;28;20061;-80
2023/06/25 11:52:56;;;;;;;0.10;0.10;;;;;;;-145.06;44.26;87881.41;10378667;28;20093;-80
2023/06/25 11:57:56;;;;;;;0.10;0.10;;;;;;;-145.06;39.37;88177.56;10379774;28;20109;-79
2023/06/25 12:02:56;;;;;;;0.10;0.10;;;;;;;-145.06;42.71;88006.00;10380160;28;20025;-79
2023/06/25 12:07:57;;;;;;;0.00;0.00;;;;;;;-145.06;43.26;88008.03;10379858;28;20014;-78
2023/06/25 12:12:57;;;;;;;0.10;0.10;;;;;;;-145.06;43.99;88320.56;10378834;28;20096;-79
2023/06/25 12:17:57;;;;;;;0.10;0.10;;;;;;;-145.06;45.11;88428.81;10380317;28;20389;-79
2023/06/25 12:22:58;;;;;;;0.08;0.08;;;;;;;-145.06;45.53;88387.97;10379636;28;20054;-78
2023/06/25 12:27:58;;;;;;;0.10;0.10;;;;;;;-145.06;43.38;88469.66;10380476;28;20455;-79
2023/06/25 12:32:59;;;;;;;0.10;0.10;;;;;;;-145.06;44.22;88130.59;10379624;28;20022;-80
2023/06/25 12:37:59;;;;;;;0.10;0.10;;;;;;;-145.06;46.56;88148.97;10377106;28;20022;-80
2023/06/25 12:42:59;;;;;;;0.10;0.10;;;;;;;-145.06;42.26;88089.72;10377317;28;20032;-80
2023/06/25 12:48:00;;;;;;;0.00;0.00;;;;;;;-145.06;41.95;88067.25;10376416;28;20057;-80
2023/06/25 12:53:00;;;;;;;0.10;0.10;;;;;;;-145.06;44.43;88142.84;10375228;22;20002;-78
2023/06/25 12:58:00;;;;;;;0.00;0.00;;;;;;;-145.06;44.54;88330.75;10388331;28;20030;-78
2023/06/25 13:03:03;;;;;;;0.00;0.00;;;;;;;-145.06;45.17;88214.34;10381977;28;20038;-78
2023/06/25 13:08:03;;;;;;;0.10;0.10;;;;;;;-145.06;43.69;88398.16;10380945;28;20108;-78
2023/06/25 13:13:03;;;;;;;0.03;0.03;;;;;;;-145.06;43.95;88189.81;10384293;28;20053;-77
2023/06/25 13:18:04;;;;;;;0.00;0.00;;;;;;;-145.06;46.45;88185.72;10383996;28;20026;-78
2023/06/25 13:23:13;;;;;;;0.00;0.00;;;;;;;-145.06;43.60;88138.75;10371365;28;20041;-78
2023/06/25 13:28:14;;;;;;;0.00;0.00;;;;;;;-145.06;41.81;88306.25;10381660;28;20026;-78
2023/06/25 13:33:14;;;;;;;0.00;0.00;;;;;;;-145.06;45.74;88453.31;10383938;28;20037;-78
2023/06/25 13:38:15;;;;;;;0.00;0.00;;;;;;;-145.06;46.24;88412.47;10367573;28;20359;-78
2023/06/25 13:43:15;;;;;;;0.00;0.00;;;;;;;-145.06;45.52;88434.94;10391287;28;20025;-77
2023/06/25 13:48:15;;;;;;;0.10;0.10;;;;;;;-145.06;45.69;88236.78;10381933;28;20442;-78
2023/06/25 13:53:16;;;;;;;0.00;0.00;;;;;;;-145.06;45.51;88179.59;10384270;28;20083;-78
2023/06/25 13:58:16;;;;;;;0.07;0.07;;;;;;;-145.06;42.34;88126.50;10386635;28;20032;-78
2023/06/25 14:03:17;;;;;;;0.00;0.00;;;;;;;-145.06;46.04;88214.34;10380531;28;20026;-78
2023/06/25 14:08:17;;;;;;;0.00;0.00;;;;;;;-145.06;42.02;88377.75;10361704;28;20036;-79
2023/06/25 14:13:21;;;;;;;0.00;0.00;;;;;;;-145.06;42.84;88510.53;10367176;28;20018;-79
2023/06/25 14:18:21;;;;;;;0.00;0.00;;;;;;;-145.06;47.73;88351.19;10368016;28;20124;-78
2023/06/25 14:23:21;;;;;;;0.10;0.10;;;;;;;-145.06;45.18;88294.00;10379619;28;20097;-78
2023/06/25 14:28:22;;;;;;;0.00;0.00;;;;;;;-145.06;43.91;88261.31;10378168;28;20109;-78
2023/06/25 14:33:22;;;;;;;0.00;0.00;;;;;;;-145.06;44.32;88306.25;10379187;28;20017;-78
2023/06/25 14:38:22;;;;;;;0.10;0.10;;;;;;;-145.06;44.47;88365.50;10385426;28;20014;-78
2023/06/25 14:43:23;;;;;;;0.00;0.00;;;;;;;-145.06;47.69;88371.63;10379853;28;20022;-78
2023/06/25 14:48:23;;;;;;;0.00;0.00;;;;;;;-145.06;46.28;88353.22;10362750;28;20339;-78
2023/06/25 14:53:23;;;;;;;0.00;0.00;;;;;;;-145.06;50.58;88465.59;10359277;28;20033;-78
2023/06/25 14:58:23;;;;;;;0.10;0.10;;;;;;;-145.06;46.58;88318.50;10382139;28;20470;-78
2023/06/25 15:03:24;;;;;;;0.10;0.10;;;;;;;-145.06;45.48;88357.31;10381168;28;20093;-78
2023/06/25 15:08:24;;;;;;;0.10;0.10;;;;;;;-145.06;48.59;88394.09;10359689;28;20025;-77
2023/06/25 15:13:25;;;;;;;0.10;0.10;;;;;;;-145.06;47.37;88359.34;10360532;28;20124;-78
2023/06/25 15:18:25;;;;;;;0.00;0.00;;;;;;;-145.06;48.76;88383.88;10377938;28;20113;-77
2023/06/25 15:23:25;;;;;;;0.00;0.00;;;;;;;-145.06;48.17;88363.44;10379347;28;20514;-78
2023/06/25 15:28:26;;;;;;;0.00;0.00;;;;;;;-145.06;46.49;88567.72;10360166;28;20117;-78
2023/06/25 15:33:26;;;;;;;0.00;0.00;;;;;;;-145.06;45.38;88631.03;10360487;28;20022;-78
2023/06/25 15:38:26;;;;;;;0.10;0.10;;;;;;;-145.06;44.88;88645.34;10379179;28;20026;-78
2023/06/25 15:43:26;;;;;;;0.00;0.00;;;;;;;-145.06;45.80;88559.56;10377603;28;20072;-79
2023/06/25 15:48:27;;;;;;;0.00;0.00;;;;;;;-145.06;48.78;88522.78;10359679;28;20403;-78
2023/06/25 15:53:27;;;;;;;0.10;0.10;;;;;;;-145.06;44.61;88408.38;10358403;28;20079;-78
2023/06/25 15:58:27;;;;;;;0.00;0.00;;;;;;;-145.06;46.09;88584.06;10376287;28;20036;-78
2023/06/25 16:03:28;;;;;;;0.00;0.00;;;;;;;-145.06;47.67;88510.53;10376948;28;20105;-77
2023/06/25 16:08:28;;;;;;;0.00;0.00;;;;;;;-145.06;47.98;88690.28;10376966;28;20022;-78
2023/06/25 16:13:28;;;;;;;0.10;0.10;;;;;;;-145.06;46.18;88616.75;10359281;28;20084;-78
2023/06/25 16:18:30;;;;;;;0.00;0.00;;;;;;;-145.06;44.49;88520.75;10372517;28;20057;-77
2023/06/25 16:23:30;;;;;;;0.10;0.10;;;;;;;-145.06;47.26;88537.06;10380595;28;20124;-78
2023/06/25 16:28:30;;;;;;;0.00;0.00;;;;;;;-145.06;47.73;88629.00;10408840;28;20029;-78
2023/06/25 16:33:31;;;;;;;0.10;0.10;;;;;;;-145.06;48.19;88720.94;10374555;28;20267;-77
2023/06/25 16:38:31;;;;;;;0.00;0.00;;;;;;;-145.06;49.24;88784.25;10352224;28;20021;-77
2023/06/25 16:43:31;;;;;;;0.10;0.10;;;;;;;-145.06;51.86;88767.91;10372032;28;20034;-78
2023/06/25 16:48:32;;;;;;;0.10;0.10;;;;;;;-145.06;52.33;88759.75;10362442;28;20030;-78
2023/06/25 16:53:32;;;;;;;0.10;0.10;;;;;;;-145.06;49.25;88657.59;10362789;28;20028;-78
2023/06/25 16:58:32;;;;;;;0.00;0.00;;;;;;;-145.06;51.50;88706.63;10364214;28;20026;-79
2023/06/25 17:03:33;;;;;;;0.10;0.10;;;;;;;-145.06;49.08;88671.91;10382561;28;20338;-79
2023/06/25 17:08:33;;;;;;;0.00;0.00;;;;;;;-145.06;50.27;88698.47;10356426;28;20084;-78
2023/06/25 17:13:33;;;;;;;0.00;0.00;;;;;;;-145.06;47.80;88676.00;10372225;28;20438;-77
2023/06/25 17:18:33;;;;;;;0.10;0.10;;;;;;;-145.06;46.77;88690.28;10369950;28;20022;-78
2023/06/25 17:23:34;;;;;;;0.00;0.00;;;;;;;-145.06;48.17;88767.91;10333494;28;20022;-78
2023/06/25 17:28:34;;;;;;;0.10;0.10;;;;;;;-145.06;49.42;88794.47;10367377;28;20045;-78
2023/06/25 17:33:34;;;;;;;0.10;0.10;;;;;;;-145.06;48.37;88788.34;10375006;28;20134;-77
2023/06/25 17:38:35;;;;;;;0.00;0.00;;;;;;;-145.06;48.79;88821.03;10357520;28;20054;-78
2023/06/25 17:43:35;;;;;;;0.00;0.00;;;;;;;-145.06;48.92;88874.16;10380471;28;20026;-78
2023/06/25 17:48:35;;;;;;;0.00;0.00;;;;;;;-145.06;49.25;88886.41;10363301;28;20083;-78
2023/06/25 17:53:37;;;;;;;0.00;0.00;;;;;;;-145.06;50.00;88851.69;10392889;28;20521;-78
2023/06/25 17:58:37;;;;;;;0.10;0.10;;;;;;;-145.06;50.81;88865.97;10381287;28;20033;-77
2023/06/25 18:03:38;;;;;;;0.10;0.10;;;;;;;-145.06;51.14;88900.72;10380939;28;20026;-78
2023/06/25 18:08:38;;;;;;;0.00;0.00;;;;;;;-145.06;52.62;88931.34;10365713;28;20269;-78
2023/06/25 18:13:39;;;;;;;0.10;0.10;;;;;;;-145.06;54.43;88976.31;10385792;28;20102;-79
2023/06/25 18:18:43;;;;;;;0.10;0.10;;;;;;;-145.06;53.76;88966.09;10409538;28;20114;-78
2023/06/25 18:23:43;;;;;;;0.00;0.00;;;;;;;-145.06;53.47;89023.28;10404030;28;20105;-78
2023/06/25 18:28:44;;;;;;;0.00;0.00;;;;;;;-145.06;53.16;89004.91;10421341;28;20047;-77
2023/06/25 18:33:44;;;;;;;0.10;0.10;;;;;;;-145.06;53.93;88998.78;10420038;28;20112;-77
2023/06/25 18:38:44;;;;;;;0.00;0.00;;;;;;;-145.06;54.01;89041.69;10365628;28;20096;-77
2023/06/25 18:43:45;;;;;;;0.00;0.00;;;;;;;-145.06;53.99;89076.41;10377011;28;20474;-78
2023/06/25 18:48:45;;;;;;;0.00;0.00;;;;;;;-145.06;58.44;89117.28;10381759;28;20030;-79
2023/06/25 18:53:46;;;;;;;0.00;0.00;;;;;;;-145.06;57.63;89133.63;10378318;28;20026;-78
2023/06/25 18:58:46;;;;;;;0.00;0.00;;;;;;;-145.06;57.82;89168.34;10379641;28;20107;-78
2023/06/25 19:03:50;;;;;;;0.00;0.00;;;;;;;-145.06;59.59;89227.59;10379562;28;20439;-78
2023/06/25 19:08:50;;;;;;;0.00;0.00;;;;;;;-145.06;66.29;89290.94;10384487;28;20037;-78
2023/06/25 19:13:50;;;;;;;0.00;0.00;;;;;;;-145.06;72.88;89356.31;10392203;22;20540;-78
2023/06/25 19:18:51;;;;;;;0.10;0.10;;;;;;;-145.06;73.45;89389.00;10347062;28;20044;-79
2023/06/25 19:23:51;;;;;;;0.00;0.00;;;;;;;-145.06;70.63;89376.75;10362394;28;20026;-79
2023/06/25 19:28:51;;;;;;;0.00;0.00;;;;;;;-145.06;77.83;89472.78;10356740;28;20474;-79
2023/06/25 19:33:53;;;;;;;0.00;0.00;;;;;;;-145.06;80.19;89499.34;10358653;28;20022;-79
2023/06/25 19:38:53;;;;;;;0.00;0.00;;;;;;;-145.06;84.79;89605.59;10356738;28;20105;-79
2023/06/25 19:43:53;;;;;;;0.00;0.00;;;;;;;-145.06;87.32;89617.84;10349402;28;20113;-79
2023/06/25 19:48:53;;;;;;;0.00;0.00;;;;;;;-145.06;91.22;89683.25;10359728;28;20026;-79
2023/06/25 19:53:54;;;;;;;0.10;0.10;;;;;;;-145.06;91.33;89738.41;10354299;28;20027;-79
2023/06/25 19:58:55;;;;;;;0.08;0.08;;;;;;;-145.06;86.42;89746.59;10361775;28;20030;-79
2023/06/25 20:03:55;;;;;;;0.00;0.00;;;;;;;-145.06;88.38;89785.41;10352690;28;20023;-79
2023/06/25 20:08:55;;;;;;;0.00;0.00;;;;;;;-145.06;85.23;89764.97;10334130;28;20034;-79
2023/06/25 20:13:56;;;;;;;0.10;0.10;;;;;;;-145.06;90.50;89809.94;10351884;28;20029;-78
2023/06/25 20:18:56;;;;;;;0.00;0.00;;;;;;;-145.06;91.65;89799.72;10353775;28;20028;-79
2023/06/25 20:23:57;;;;;;;0.00;0.00;;;;;;;-145.06;88.03;89820.16;10337866;28;20027;-79
2023/06/25 20:28:57;;;;;;;0.00;0.00;;;;;;;-145.06;91.05;89826.28;10359733;28;20164;-79
2023/06/25 20:33:57;;;;;;;0.00;0.00;;;;;;;-145.06;100.00;90006.13;10360411;28;20425;-78
2023/06/25 20:38:58;;;;;;;0.32;0.10;;;;;;;-145.06;100.00;89981.59;10331849;28;20402;-80
2023/06/25 20:43:58;;;;;;;0.00;0.00;;;;;;;-145.06;100.00;90065.38;10333480;28;20018;-79
2023/06/25 20:48:58;;;;;;;0.00;0.00;;;;;;;-145.06;100.00;90124.63;10350928;28;20615;-80
2023/06/25 20:53:58;;;;;;;0.03;0.03;;;;;;;-145.06;100.00;90075.59;10359517;28;20176;-80
2023/06/25 20:59:01;;;;;;;0.00;0.00;;;;;;;-145.06;100.00;90132.81;10355851;28;20030;-79
2023/06/25 21:04:01;;;;;;;0.00;0.00;;;;;;;-145.06;100.00;90159.38;10353489;28;20022;-79
2023/06/25 21:09:03;;;;;;;0.10;0.10;;;;;;;-145.06;100.00;90200.25;10332949;28;20084;-80
2023/06/25 21:14:05;;;;;;;0.10;0.10;;;;;;;-145.06;100.00;90202.31;10361116;28;20032;-79
2023/06/25 21:19:05;;;;;;;0.10;0.10;;;;;;;-145.06;100.00;90273.81;10368262;28;20037;-80
2023/06/25 21:24:07;;;;;;;0.00;0.00;;;;;;;-145.06;100.00;90235.00;10362618;28;20026;-79
2023/06/25 21:29:07;;;;;;;0.00;0.00;;;;;;;-145.06;100.00;90206.38;10344867;28;20101;-79
2023/06/25 21:34:08;;;;;;;0.00;0.00;;;;;;;-145.06;100.00;90298.34;10361897;28;20034;-78
2023/06/25 21:39:08;;;;;;;0.10;0.10;;;;;;;-145.06;100.00;90282.00;10359843;28;20045;-80
2023/06/25 21:44:09;;;;;;;0.00;0.00;;;;;;;-145.06;100.00;90294.25;10361883;28;20046;-79
2023/06/25 21:49:09;;;;;;;0.00;0.00;;;;;;;-145.06;100.00;90296.31;10353238;28;20344;-81
2023/06/25 21:54:09;;;;;;;0.07;0.07;;;;;;;-145.06;100.00;90361.72;10357366;28;20018;-80
2023/06/25 21:59:09;;;;;;;0.00;0.00;;;;;;;-145.06;100.00;90335.13;10356060;28;20026;-80
2023/06/25 22:04:10;;;;;;;0.00;0.00;;;;;;;-145.06;100.00;90339.22;10366081;28;20109;-79
2023/06/25 22:09:10;;;;;;;0.10;0.10;;;;;;;-145.06;100.00;90296.31;10368639;28;20034;-80
2023/06/25 22:14:10;;;;;;;0.00;0.00;;;;;;;-145.06;100.00;90333.09;10366901;28;20026;-80
2023/06/25 22:19:10;;;;;;;0.10;0.10;;;;;;;-145.06;100.00;90349.44;10370865;28;20552;-80
2023/06/25 22:24:11;;;;;;;0.10;0.10;;;;;;;-145.06;100.00;90369.88;10368893;28;20035;-81
2023/06/25 22:29:11;;;;;;;0.00;0.00;;;;;;;-145.06;100.00;90390.31;10358152;28;20030;-80
2023/06/25 22:34:12;;;;;;;0.10;0.10;;;;;;;-145.06;100.00;90429.16;10348100;28;20023;-80
2023/06/25 22:39:12;;;;;;;0.10;0.10;;;;;;;-145.06;100.00;90445.50;10361702;28;20662;-80
2023/06/25 22:44:13;;;;;;;0.10;0.10;;;;;;;-145.06;100.00;90445.50;10357174;28;20014;-80
2023/06/25 22:49:13;;;;;;;0.10;0.10;;;;;;;-145.06;100.00;90463.88;10366728;28;20026;-81
2023/06/25 22:54:15;;;;;;;0.10;0.10;;;;;;;-145.06;100.00;90459.81;10350104;28;20018;-80